Arivaca, Arizona
Current Conditions -  °F | °C
As of 11:54 AM on Friday 24 Oct 2014 (Local Time) from KOLS Reporting Station
Clear Clear  
Wind Chill: 29°   Ceiling: Unl
Heat Index: 29°   Visibility: 10mi
Dew Point:   Wind: 6mph
Humidity: 25%   Direction: NA
Pressure: 30.19"   Gusts: NA
Location:  31.57°N, 111.33°W
Report Text: KOLS 241854Z AUTO VRB05KT 10SM CLR 29/07 A3019 RMK AO2 SLP164 T02940072
Loading
Personal Weather Stations






























Interactive Weather Map New forecast layout! Learn more

10-Day Weather Forecast

Advertisements
Track Severe Weather on mobile